Time;durP1;ratioP1;P1;durP2;ratioP2;P2;SDS_P1;SDS_P2;PMS_P1;PMS_P2;Temp;Humidity;BMP_temperature;BMP_pressure;BME280_temperature;BME280_humidity;BME280_pressure;Samples;Min_cycle;Max_cycle;Signal;HPM_P1;HPM_P2
2022/10/05 00:00:57;;;;;;;7.18;1.73;;;;;;;;;;5004327;28;20064;-65
2022/10/05 00:15:38;;;;;;;5.70;1.63;;;;;;;;;;4995883;28;20506;-65
2022/10/05 00:18:04;;;;;;;;;;;;;;;;;;4986867;28;20040;-65
2022/10/05 00:20:30;;;;;;;6.13;1.60;;;;;;;;;;4983818;28;19912;-65
2022/10/05 00:22:56;;;;;;;;;;;;;;;;;;5002111;28;20344;-64
2022/10/05 00:25:22;;;;;;;8.07;1.50;;;;;;;;;;4992278;28;20519;-65
2022/10/05 00:27:59;;;;;;;5.03;1.60;;;;;;;;;;4987353;28;20025;-65
2022/10/05 00:30:30;;;;;;;4.47;1.40;;;;;;;;;;4993785;28;20025;-65
2022/10/05 00:32:56;;;;;;;6.50;1.70;;;;;;;;;;5002079;28;20451;-65
2022/10/05 00:35:22;;;;;;;;;;;;;;;;;;5002107;28;20104;-65
2022/10/05 00:37:52;;;;;;;8.63;2.00;;;;;;;;;;5005206;28;19913;-65
2022/10/05 00:40:24;;;;;;;7.20;1.60;;;;;;;;;;5002780;28;20508;-65
2022/10/05 00:42:53;;;;;;;4.97;1.30;;;;;;;;;;5002395;28;20036;-65
2022/10/05 00:45:29;;;;;;;6.72;1.30;;;;;;;;;;5004718;28;20064;-65
2022/10/05 00:47:55;;;;;;;6.53;1.52;;;;;;;;;;4999774;28;20041;-65
2022/10/05 00:50:25;;;;;;;5.32;1.30;;;;;;;;;;4996974;28;20033;-65
2022/10/05 00:52:51;;;;;;;6.50;1.58;;;;;;;;;;4987203;28;20723;-65
2022/10/05 00:55:17;;;;;;;;;;;;;;;;;;5003610;28;20097;-65
2022/10/05 00:57:46;;;;;;;4.95;1.50;;;;;;;;;;5004523;28;19920;-65
2022/10/05 01:00:16;;;;;;;4.28;1.38;;;;;;;;;;4983840;28;20026;-65
2022/10/05 01:02:54;;;;;;;5.18;1.50;;;;;;;;;;5001686;28;20037;-65
2022/10/05 01:05:42;;;;;;;6.28;1.48;;;;;;;;;;4999284;28;20099;-66
2022/10/05 01:08:21;;;;;;;7.35;1.67;;;;;;;;;;5000954;28;20057;-65
2022/10/05 01:10:52;;;;;;;4.20;1.30;;;;;;;;;;5004404;28;20033;-65
2022/10/05 01:13:24;;;;;;;7.70;1.60;;;;;;;;;;4984791;28;20029;-65
2022/10/05 01:16:09;;;;;;;5.68;1.70;;;;;;;;;;4981208;28;20029;-67
2022/10/05 01:18:42;;;;;;;6.70;1.48;;;;;;;;;;4998806;28;20020;-65
2022/10/05 01:21:14;;;;;;;6.47;1.52;;;;;;;;;;5004526;28;20164;-66
2022/10/05 01:23:46;;;;;;;5.72;1.30;;;;;;;;;;4999505;28;20029;-65
2022/10/05 01:26:16;;;;;;;6.40;1.50;;;;;;;;;;5002607;28;20021;-65
2022/10/05 01:28:47;;;;;;;5.15;1.30;;;;;;;;;;4994971;28;20026;-65
2022/10/05 01:31:21;;;;;;;4.82;1.40;;;;;;;;;;5004132;28;20041;-65
2022/10/05 01:33:56;;;;;;;7.72;1.60;;;;;;;;;;4985398;28;20112;-65
2022/10/05 01:36:22;;;;;;;6.10;1.48;;;;;;;;;;4983781;28;20051;-65
2022/10/05 01:38:48;;;;;;;;;;;;;;;;;;4987466;28;20041;-65
2022/10/05 01:41:33;;;;;;;5.20;1.40;;;;;;;;;;4982676;28;19924;-65
2022/10/05 01:44:05;;;;;;;5.68;1.40;;;;;;;;;;5001039;28;20137;-65
2022/10/05 01:46:35;;;;;;;5.65;1.30;;;;;;;;;;4976047;28;20121;-65
2022/10/05 01:49:02;;;;;;;5.20;1.23;;;;;;;;;;5001942;28;20033;-65
2022/10/05 01:51:27;;;;;;;;;;;;;;;;;;5002302;28;20033;-65
2022/10/05 01:53:54;;;;;;;4.63;1.40;;;;;;;;;;4999159;28;20635;-66
2022/10/05 01:56:39;;;;;;;5.45;1.40;;;;;;;;;;4995347;28;20122;-66
2022/10/05 01:59:10;;;;;;;6.43;1.33;;;;;;;;;;4997256;28;20108;-66
2022/10/05 02:01:36;;;;;;;4.88;1.40;;;;;;;;;;4993909;28;20574;-66
2022/10/05 02:04:05;;;;;;;5.28;1.50;;;;;;;;;;5003040;28;20436;-66
2022/10/05 02:06:32;;;;;;;5.10;1.58;;;;;;;;;;5004610;28;20036;-66
2022/10/05 02:09:11;;;;;;;7.20;1.50;;;;;;;;;;5004740;28;20613;-66
2022/10/05 02:11:39;;;;;;;7.90;1.50;;;;;;;;;;4986870;28;20641;-66
2022/10/05 02:14:08;;;;;;;6.22;1.60;;;;;;;;;;5002002;28;20029;-66
2022/10/05 02:16:34;;;;;;;7.63;1.70;;;;;;;;;;4999331;28;20029;-66
2022/10/05 02:19:08;;;;;;;6.40;1.58;;;;;;;;;;5001248;28;20026;-66
2022/10/05 02:21:34;;;;;;;4.97;1.40;;;;;;;;;;4983083;28;20041;-66
2022/10/05 02:24:03;;;;;;;8.23;1.77;;;;;;;;;;4984284;28;20037;-66
2022/10/05 02:26:31;;;;;;;7.43;1.52;;;;;;;;;;4997413;28;20578;-67
2022/10/05 02:28:59;;;;;;;5.93;1.48;;;;;;;;;;5000884;28;20181;-66
2022/10/05 02:31:28;;;;;;;6.25;1.40;;;;;;;;;;4994875;28;20045;-65
2022/10/05 02:34:13;;;;;;;6.30;1.60;;;;;;;;;;5002971;28;20756;-65
2022/10/05 02:36:39;;;;;;;4.13;1.35;;;;;;;;;;4999278;28;20040;-65
2022/10/05 02:39:06;;;;;;;8.18;1.60;;;;;;;;;;5006868;28;20029;-65
2022/10/05 02:41:32;;;;;;;;;;;;;;;;;;4996502;28;20495;-64
2022/10/05 02:44:16;;;;;;;5.75;1.60;;;;;;;;;;5000755;28;19913;-65
2022/10/05 02:46:42;;;;;;;5.88;1.60;;;;;;;;;;5003562;28;20067;-64
2022/10/05 02:49:08;;;;;;;;;;;;;;;;;;4985699;28;20498;-65
2022/10/05 02:51:46;;;;;;;6.00;1.70;;;;;;;;;;4998583;28;20019;-64
2022/10/05 02:54:35;;;;;;;5.75;1.60;;;;;;;;;;4992433;28;20079;-64
2022/10/05 02:57:16;;;;;;;5.93;1.65;;;;;;;;;;4997176;28;20037;-64
2022/10/05 03:00:02;;;;;;;6.20;1.70;;;;;;;;;;4998991;28;20685;-64
2022/10/05 03:02:31;;;;;;;7.20;1.92;;;;;;;;;;5002143;28;20037;-64
2022/10/05 03:04:58;;;;;;;8.05;1.73;;;;;;;;;;5006954;28;20129;-65
2022/10/05 03:07:31;;;;;;;5.93;1.80;;;;;;;;;;5000023;28;20127;-64
2022/10/05 03:10:01;;;;;;;6.72;1.30;;;;;;;;;;5000655;28;20558;-64
2022/10/05 03:12:36;;;;;;;4.95;1.50;;;;;;;;;;4977764;28;20035;-65
2022/10/05 03:15:06;;;;;;;6.75;1.73;;;;;;;;;;5000937;28;20025;-65
2022/10/05 03:17:37;;;;;;;5.03;1.38;;;;;;;;;;5000398;28;20034;-65
2022/10/05 03:20:13;;;;;;;8.65;1.70;;;;;;;;;;4986588;28;20034;-64
2022/10/05 03:22:50;;;;;;;9.77;1.95;;;;;;;;;;4983271;28;20072;-65
2022/10/05 03:25:25;;;;;;;5.45;1.45;;;;;;;;;;5005408;28;20044;-66
2022/10/05 03:28:06;;;;;;;7.57;1.60;;;;;;;;;;4991643;28;20034;-65
2022/10/05 03:30:37;;;;;;;6.60;1.40;;;;;;;;;;5005854;28;20040;-65
2022/10/05 03:33:22;;;;;;;5.80;1.65;;;;;;;;;;4983813;28;20060;-65
2022/10/05 03:36:08;;;;;;;6.95;1.48;;;;;;;;;;5000598;28;20022;-65
2022/10/05 03:38:48;;;;;;;5.63;1.40;;;;;;;;;;4984897;28;20102;-65
2022/10/05 03:41:24;;;;;;;7.03;1.55;;;;;;;;;;5007727;28;20589;-65
2022/10/05 03:44:05;;;;;;;6.30;1.70;;;;;;;;;;5010703;28;20083;-67
2022/10/05 03:46:50;;;;;;;6.38;1.80;;;;;;;;;;5002621;28;20060;-65
2022/10/05 03:49:22;;;;;;;6.18;1.60;;;;;;;;;;4992880;28;20199;-65
2022/10/05 03:51:51;;;;;;;7.72;1.60;;;;;;;;;;5006789;28;20431;-65
2022/10/05 03:54:17;;;;;;;6.30;1.48;;;;;;;;;;5003548;28;20159;-65
2022/10/05 03:56:49;;;;;;;7.45;1.40;;;;;;;;;;5008619;28;20037;-65
2022/10/05 03:59:21;;;;;;;5.47;1.42;;;;;;;;;;5000913;28;20443;-65
2022/10/05 04:01:53;;;;;;;5.75;1.35;;;;;;;;;;5003834;28;20065;-65
2022/10/05 04:04:32;;;;;;;6.38;1.30;;;;;;;;;;4997886;28;20017;-65
2022/10/05 04:06:59;;;;;;;7.05;1.45;;;;;;;;;;5000680;28;20038;-65
2022/10/05 04:09:28;;;;;;;4.47;1.25;;;;;;;;;;4986793;28;20549;-65
2022/10/05 04:12:01;;;;;;;6.28;1.40;;;;;;;;;;5001868;28;20064;-65
2022/10/05 04:14:32;;;;;;;5.15;1.33;;;;;;;;;;4991339;28;20025;-65
2022/10/05 04:17:00;;;;;;;7.93;1.70;;;;;;;;;;4988269;28;20141;-65
2022/10/05 04:19:43;;;;;;;6.85;1.60;;;;;;;;;;4996541;28;20181;-65
2022/10/05 04:22:15;;;;;;;6.63;1.50;;;;;;;;;;4989400;28;20115;-65
2022/10/05 04:24:45;;;;;;;8.77;1.60;;;;;;;;;;4985521;28;20955;-65
2022/10/05 04:27:16;;;;;;;8.63;2.10;;;;;;;;;;5004627;28;20668;-65
2022/10/05 04:29:42;;;;;;;7.72;2.42;;;;;;;;;;5000876;28;20128;-65
2022/10/05 04:32:08;;;;;;;9.32;2.40;;;;;;;;;;5005727;28;20384;-65
2022/10/05 04:34:53;;;;;;;8.45;2.85;;;;;;;;;;5000864;28;20057;-65
2022/10/05 04:37:25;;;;;;;12.55;4.22;;;;;;;;;;4979237;28;20364;-65
2022/10/05 04:39:54;;;;;;;12.18;4.47;;;;;;;;;;4988206;28;20136;-65
2022/10/05 04:42:39;;;;;;;12.18;5.03;;;;;;;;;;4980250;28;20059;-65
2022/10/05 04:45:34;;;;;;;10.30;4.50;;;;;;;;;;5006092;28;20118;-65
2022/10/05 04:48:13;;;;;;;11.35;3.80;;;;;;;;;;5009095;28;20053;-65
2022/10/05 04:50:45;;;;;;;7.67;2.50;;;;;;;;;;5004339;28;20037;-65
2022/10/05 04:53:14;;;;;;;7.97;2.47;;;;;;;;;;5009101;28;20379;-65
2022/10/05 04:55:53;;;;;;;10.45;2.28;;;;;;;;;;5006393;28;20030;-65
2022/10/05 04:58:22;;;;;;;7.82;1.98;;;;;;;;;;5005256;28;20510;-65
2022/10/05 05:00:48;;;;;;;9.60;1.95;;;;;;;;;;5010005;28;20112;-65
2022/10/05 05:03:29;;;;;;;7.03;1.70;;;;;;;;;;5010753;28;20033;-65
2022/10/05 05:05:55;;;;;;;10.35;2.00;;;;;;;;;;5006492;28;20025;-65
2022/10/05 05:08:40;;;;;;;7.75;1.95;;;;;;;;;;5005605;28;20463;-65
2022/10/05 05:11:06;;;;;;;7.60;1.80;;;;;;;;;;5010612;28;20570;-66
2022/10/05 05:13:41;;;;;;;8.65;1.98;;;;;;;;;;4983366;28;20033;-65
2022/10/05 05:16:11;;;;;;;6.82;1.77;;;;;;;;;;4993493;28;20048;-65
2022/10/05 05:18:39;;;;;;;8.73;2.20;;;;;;;;;;5006619;28;21033;-65
2022/10/05 05:21:29;;;;;;;6.60;1.85;;;;;;;;;;5004006;28;20021;-65
2022/10/05 05:23:55;;;;;;;9.88;1.98;;;;;;;;;;5003187;28;20125;-65
2022/10/05 05:26:21;;;;;;;;;;;;;;;;;;4988582;28;20163;-65
2022/10/05 05:28:47;;;;;;;5.90;1.73;;;;;;;;;;4996483;28;19916;-65
2022/10/05 05:31:13;;;;;;;;;;;;;;;;;;4999565;28;20025;-66
2022/10/05 05:33:48;;;;;;;10.23;1.70;;;;;;;;;;5000080;28;20355;-65
2022/10/05 05:36:22;;;;;;;7.82;1.67;;;;;;;;;;4995220;28;20017;-65
2022/10/05 05:39:03;;;;;;;8.88;2.00;;;;;;;;;;4995191;28;20484;-65
2022/10/05 05:41:42;;;;;;;6.88;2.28;;;;;;;;;;4974157;28;20944;-64
2022/10/05 05:44:08;;;;;;;8.15;2.83;;;;;;;;;;4999573;28;20037;-66
2022/10/05 05:46:36;;;;;;;7.30;2.53;;;;;;;;;;4994882;28;20033;-65
2022/10/05 05:49:06;;;;;;;8.50;2.28;;;;;;;;;;5003207;28;20037;-64
2022/10/05 05:51:35;;;;;;;6.10;1.70;;;;;;;;;;4978217;28;20128;-65
2022/10/05 05:54:04;;;;;;;8.13;2.15;;;;;;;;;;5003355;28;20620;-65
2022/10/05 05:56:32;;;;;;;10.45;2.03;;;;;;;;;;4999440;28;20865;-65
2022/10/05 05:59:01;;;;;;;8.63;2.65;;;;;;;;;;5003133;28;20037;-66
2022/10/05 06:01:27;;;;;;;9.43;2.70;;;;;;;;;;4998780;28;20763;-67
2022/10/05 06:04:02;;;;;;;7.93;2.65;;;;;;;;;;5004011;28;20022;-66
2022/10/05 06:06:34;;;;;;;10.52;2.70;;;;;;;;;;4984650;28;20523;-65
2022/10/05 06:09:03;;;;;;;10.38;2.20;;;;;;;;;;4984778;28;20080;-65
2022/10/05 06:11:50;;;;;;;7.28;1.95;;;;;;;;;;4987058;28;20033;-65
2022/10/05 06:14:34;;;;;;;7.65;1.95;;;;;;;;;;5001566;28;20032;-65
2022/10/05 06:17:27;;;;;;;9.77;2.20;;;;;;;;;;5001412;28;20030;-65
2022/10/05 06:19:57;;;;;;;9.25;1.83;;;;;;;;;;4993882;28;20041;-66
2022/10/05 06:22:41;;;;;;;7.40;1.90;;;;;;;;;;4997153;28;20651;-66
2022/10/05 06:25:14;;;;;;;8.35;2.20;;;;;;;;;;5000647;28;20400;-65
2022/10/05 06:28:00;;;;;;;7.00;2.13;;;;;;;;;;4986327;28;20469;-65
2022/10/05 06:30:48;;;;;;;6.75;1.70;;;;;;;;;;4992304;28;20144;-65
2022/10/05 06:33:33;;;;;;;7.22;2.22;;;;;;;;;;4974385;28;20068;-65
2022/10/05 06:36:19;;;;;;;8.65;2.30;;;;;;;;;;4993522;28;20156;-64
2022/10/05 06:39:15;;;;;;;12.05;3.30;;;;;;;;;;4998001;28;20030;-65
2022/10/05 06:41:51;;;;;;;11.25;3.00;;;;;;;;;;5002101;28;20480;-65
2022/10/05 06:44:35;;;;;;;9.88;2.30;;;;;;;;;;5002880;28;20036;-66
2022/10/05 06:47:08;;;;;;;7.82;2.10;;;;;;;;;;4990252;28;20044;-66
2022/10/05 06:49:45;;;;;;;9.20;2.33;;;;;;;;;;4995086;28;20606;-65
2022/10/05 06:52:14;;;;;;;11.35;4.35;;;;;;;;;;5006913;28;20564;-65
2022/10/05 06:54:59;;;;;;;8.80;2.80;;;;;;;;;;5003467;28;20032;-64
2022/10/05 06:57:32;;;;;;;7.88;2.10;;;;;;;;;;4984560;28;20021;-65
2022/10/05 07:00:04;;;;;;;8.48;1.80;;;;;;;;;;4988057;28;20243;-65
2022/10/05 07:02:56;;;;;;;7.53;2.03;;;;;;;;;;5001856;28;20056;-66
2022/10/05 07:05:41;;;;;;;8.90;1.52;;;;;;;;;;4997363;28;20486;-66
2022/10/05 07:08:13;;;;;;;15.23;2.42;;;;;;;;;;4987151;28;20741;-66
2022/10/05 07:10:47;;;;;;;12.60;2.60;;;;;;;;;;5002861;28;20069;-66
2022/10/05 07:13:30;;;;;;;9.02;2.83;;;;;;;;;;5008839;28;20030;-65
2022/10/05 07:16:02;;;;;;;10.90;3.03;;;;;;;;;;5008762;28;20029;-65
2022/10/05 07:18:48;;;;;;;8.00;3.10;;;;;;;;;;5005078;28;20159;-65
2022/10/05 07:21:21;;;;;;;9.23;3.27;;;;;;;;;;5009075;28;20470;-65
2022/10/05 07:23:47;;;;;;;8.13;2.80;;;;;;;;;;4990972;28;20528;-65
2022/10/05 07:26:13;;;;;;;;;;;;;;;;;;5012640;28;20087;-65
2022/10/05 07:28:46;;;;;;;9.80;2.97;;;;;;;;;;4989653;28;20362;-65
2022/10/05 07:31:29;;;;;;;7.97;2.55;;;;;;;;;;5013250;28;20755;-65
2022/10/05 07:34:13;;;;;;;6.75;2.10;;;;;;;;;;5002752;28;20802;-65
2022/10/05 07:39:45;;;;;;;6.43;2.17;;;;;;;;;;5005985;28;20071;-65
2022/10/05 07:42:25;;;;;;;7.85;2.33;;;;;;;;;;4993297;28;20148;-65
2022/10/05 07:44:59;;;;;;;11.32;2.00;;;;;;;;;;4992866;28;20037;-65
2022/10/05 07:47:38;;;;;;;5.82;1.73;;;;;;;;;;5003216;28;20115;-66
2022/10/05 07:50:23;;;;;;;6.13;1.60;;;;;;;;;;5010191;28;20037;-66
2022/10/05 07:52:58;;;;;;;6.93;1.90;;;;;;;;;;5008757;28;20029;-66
2022/10/05 07:55:32;;;;;;;7.53;1.90;;;;;;;;;;5006292;28;20642;-66
2022/10/05 07:58:17;;;;;;;7.28;1.70;;;;;;;;;;5005209;28;20029;-66
2022/10/05 08:01:00;;;;;;;6.32;1.30;;;;;;;;;;5012335;28;20045;-66
2022/10/05 08:03:42;;;;;;;4.85;1.33;;;;;;;;;;5004574;28;20029;-66
2022/10/05 08:06:12;;;;;;;7.63;1.40;;;;;;;;;;5008191;28;20355;-66
2022/10/05 08:08:48;;;;;;;5.38;1.55;;;;;;;;;;4986999;28;20038;-66
2022/10/05 08:11:36;;;;;;;5.90;1.17;;;;;;;;;;5005825;28;20360;-66
2022/10/05 08:14:08;;;;;;;5.88;1.25;;;;;;;;;;5001506;28;20470;-66
2022/10/05 08:16:37;;;;;;;7.68;1.52;;;;;;;;;;4995252;28;20087;-66
2022/10/05 08:19:23;;;;;;;8.93;1.60;;;;;;;;;;5008363;28;20392;-66
2022/10/05 08:21:57;;;;;;;6.63;1.80;;;;;;;;;;5006325;28;20530;-66
2022/10/05 08:24:35;;;;;;;5.95;1.40;;;;;;;;;;5003470;28;20491;-66
2022/10/05 08:27:15;;;;;;;7.68;1.52;;;;;;;;;;5005359;28;20721;-66
2022/10/05 08:30:01;;;;;;;7.28;1.48;;;;;;;;;;5001326;28;20184;-66
2022/10/05 08:32:46;;;;;;;9.35;1.85;;;;;;;;;;4999735;28;20398;-66
2022/10/05 08:35:32;;;;;;;7.72;1.65;;;;;;;;;;5007072;28;20163;-66
2022/10/05 08:38:02;;;;;;;8.02;1.80;;;;;;;;;;5004186;28;20033;-66
2022/10/05 08:40:29;;;;;;;5.78;1.50;;;;;;;;;;5001074;28;20392;-67
2022/10/05 08:43:16;;;;;;;8.90;1.63;;;;;;;;;;4985026;28;20042;-66
2022/10/05 08:45:54;;;;;;;5.78;1.42;;;;;;;;;;4979453;28;20124;-65
2022/10/05 08:48:56;;;;;;;4.53;1.10;;;;;;;;;;4965932;28;20038;-65
2022/10/05 08:51:22;;;;;;;6.25;1.30;;;;;;;;;;4906650;29;20134;-65
2022/10/05 08:53:48;;;;;;;5.53;1.23;;;;;;;;;;4889668;29;20046;-65
2022/10/05 08:56:14;;;;;;;5.07;1.10;;;;;;;;;;4906250;29;20698;-66
2022/10/05 08:58:56;;;;;;;5.30;1.13;;;;;;;;;;4901445;29;20040;-66
2022/10/05 09:01:29;;;;;;;4.57;1.00;;;;;;;;;;4901062;29;20058;-66
2022/10/05 09:03:55;;;;;;;3.95;0.93;;;;;;;;;;4904451;29;20158;-65
2022/10/05 09:06:21;;;;;;;3.70;0.82;;;;;;;;;;4905885;29;20239;-66
2022/10/05 09:08:47;;;;;;;8.27;1.30;;;;;;;;;;4908498;29;20054;-66
2022/10/05 09:11:32;;;;;;;4.88;1.10;;;;;;;;;;4908380;29;20071;-66
2022/10/05 09:14:07;;;;;;;4.55;1.10;;;;;;;;;;4905955;29;20036;-66
2022/10/05 09:16:52;;;;;;;3.88;0.90;;;;;;;;;;4899460;29;20064;-65
2022/10/05 09:19:21;;;;;;;4.53;1.00;;;;;;;;;;4903204;29;20871;-66
2022/10/05 09:21:53;;;;;;;5.90;1.02;;;;;;;;;;4904571;29;20035;-66
2022/10/05 09:24:23;;;;;;;4.40;0.90;;;;;;;;;;4906815;28;20050;-65
2022/10/05 09:26:52;;;;;;;4.13;0.90;;;;;;;;;;4982789;28;20056;-66
2022/10/05 09:29:18;;;;;;;4.15;1.00;;;;;;;;;;4981699;28;20037;-66
2022/10/05 09:31:44;;;;;;;5.85;1.20;;;;;;;;;;4984198;28;20121;-66
2022/10/05 09:34:10;;;;;;;5.85;1.30;;;;;;;;;;4982976;28;20021;-66
2022/10/05 09:36:55;;;;;;;8.73;1.30;;;;;;;;;;4980496;28;22059;-66
2022/10/05 09:39:21;;;;;;;10.25;1.15;;;;;;;;;;4980432;28;20030;-66
2022/10/05 09:41:58;;;;;;;4.72;1.00;;;;;;;;;;4993480;28;20535;-66
2022/10/05 09:44:24;;;;;;;3.90;0.85;;;;;;;;;;5001624;28;20036;-66
2022/10/05 09:47:03;;;;;;;5.35;1.02;;;;;;;;;;5006495;28;20033;-66
2022/10/05 09:49:49;;;;;;;5.90;1.10;;;;;;;;;;5002314;28;20594;-66
2022/10/05 09:52:33;;;;;;;4.55;0.90;;;;;;;;;;5008397;28;20226;-66
2022/10/05 09:55:08;;;;;;;4.68;1.00;;;;;;;;;;5001971;28;20029;-66
2022/10/05 09:57:54;;;;;;;3.47;0.90;;;;;;;;;;4986800;28;20030;-66
2022/10/05 10:00:33;;;;;;;5.18;0.73;;;;;;;;;;4984553;28;20018;-66
2022/10/05 10:03:19;;;;;;;4.10;0.82;;;;;;;;;;5009668;28;20064;-66
2022/10/05 10:05:54;;;;;;;6.00;1.05;;;;;;;;;;5006290;28;20953;-66
2022/10/05 10:08:39;;;;;;;2.78;0.75;;;;;;;;;;4992646;28;20415;-65
2022/10/05 10:11:05;;;;;;;5.85;0.90;;;;;;;;;;5007490;28;20039;-65
2022/10/05 10:13:52;;;;;;;3.80;0.70;;;;;;;;;;5000150;28;20037;-65
2022/10/05 10:16:38;;;;;;;3.25;0.80;;;;;;;;;;4984110;28;20471;-66
2022/10/05 10:19:05;;;;;;;;;;;;;;;;;;5006286;28;20041;-65
2022/10/05 10:21:54;;;;;;;3.15;0.70;;;;;;;;;;4994146;28;19920;-66
2022/10/05 10:24:39;;;;;;;7.18;1.00;;;;;;;;;;4995826;28;20025;-65
2022/10/05 10:27:31;;;;;;;3.63;0.85;;;;;;;;;;5000133;28;20480;-66
2022/10/05 10:30:29;;;;;;;4.40;1.05;;;;;;;;;;4987293;28;20140;-66
2022/10/05 10:33:12;;;;;;;5.20;0.90;;;;;;;;;;4981062;28;20053;-66
2022/10/05 10:35:58;;;;;;;4.78;0.88;;;;;;;;;;5001145;28;20025;-66
2022/10/05 10:38:39;;;;;;;4.47;0.75;;;;;;;;;;4998150;28;20383;-65
2022/10/05 10:41:25;;;;;;;4.15;0.82;;;;;;;;;;4998393;28;20460;-67
2022/10/05 10:44:04;;;;;;;3.60;0.80;;;;;;;;;;4980132;28;20039;-66
2022/10/05 10:46:49;;;;;;;5.00;1.30;;;;;;;;;;4982961;28;20113;-66
2022/10/05 10:49:18;;;;;;;2.88;0.73;;;;;;;;;;4978066;28;20615;-66
2022/10/05 10:51:44;;;;;;;4.00;0.80;;;;;;;;;;4965707;28;20038;-66
2022/10/05 10:54:19;;;;;;;3.22;0.73;;;;;;;;;;4981101;28;20547;-66
2022/10/05 10:57:05;;;;;;;3.75;0.73;;;;;;;;;;4982543;28;20030;-65
2022/10/05 10:59:31;;;;;;;4.15;0.70;;;;;;;;;;4977801;28;20480;-65
2022/10/05 11:02:10;;;;;;;4.10;0.90;;;;;;;;;;4977369;28;20391;-67
2022/10/05 11:04:39;;;;;;;4.18;0.60;;;;;;;;;;4960434;28;22018;-66
2022/10/05 11:07:17;;;;;;;3.28;0.68;;;;;;;;;;4982515;28;20050;-65
2022/10/05 11:10:02;;;;;;;3.92;0.60;;;;;;;;;;4981005;28;20065;-67
2022/10/05 11:12:47;;;;;;;2.60;0.55;;;;;;;;;;4975640;28;20037;-67
2022/10/05 11:15:13;;;;;;;2.50;0.35;;;;;;;;;;4981072;28;20770;-66
2022/10/05 11:17:45;;;;;;;4.00;0.60;;;;;;;;;;4960660;28;20708;-65
2022/10/05 11:20:20;;;;;;;2.95;0.70;;;;;;;;;;4981847;28;20063;-66
2022/10/05 11:22:46;;;;;;;;;;;;;;;;;;4979814;28;20041;-66
2022/10/05 11:25:24;;;;;;;4.00;0.65;;;;;;;;;;4979955;28;19914;-67
2022/10/05 11:27:53;;;;;;;4.35;0.82;;;;;;;;;;4985353;28;20026;-66
2022/10/05 11:30:38;;;;;;;2.63;0.88;;;;;;;;;;4975858;28;20033;-65
2022/10/05 11:33:23;;;;;;;3.03;0.80;;;;;;;;;;4981259;28;20025;-65
2022/10/05 11:36:08;;;;;;;4.18;0.93;;;;;;;;;;4961744;28;20500;-66
2022/10/05 11:38:50;;;;;;;2.33;0.68;;;;;;;;;;4976066;28;20029;-66
2022/10/05 11:41:16;;;;;;;3.10;0.80;;;;;;;;;;4988086;28;20447;-66
2022/10/05 11:43:51;;;;;;;4.15;0.80;;;;;;;;;;5008312;28;20104;-66
2022/10/05 11:46:33;;;;;;;1.50;0.50;;;;;;;;;;5000095;28;20036;-66
2022/10/05 11:49:13;;;;;;;4.05;0.68;;;;;;;;;;5006174;28;20582;-66
2022/10/05 11:51:49;;;;;;;3.80;0.60;;;;;;;;;;4997207;28;20034;-66
2022/10/05 11:54:27;;;;;;;2.35;0.70;;;;;;;;;;5005168;28;20125;-66
2022/10/05 11:57:08;;;;;;;3.47;0.70;;;;;;;;;;5005358;28;20271;-66
2022/10/05 11:59:40;;;;;;;3.67;0.60;;;;;;;;;;5006725;28;20057;-66
2022/10/05 12:02:09;;;;;;;4.88;0.70;;;;;;;;;;5007994;28;20498;-66
2022/10/05 12:04:44;;;;;;;4.00;0.80;;;;;;;;;;5007130;28;20113;-65
2022/10/05 12:07:29;;;;;;;4.10;0.80;;;;;;;;;;5004146;28;20029;-66
2022/10/05 12:10:16;;;;;;;2.72;0.77;;;;;;;;;;5006723;28;20383;-66
2022/10/05 12:13:02;;;;;;;4.28;0.90;;;;;;;;;;5007397;28;20499;-66
2022/10/05 12:15:39;;;;;;;4.10;0.60;;;;;;;;;;5004726;28;20033;-66
2022/10/05 12:18:09;;;;;;;4.60;0.77;;;;;;;;;;5008400;28;20030;-66
2022/10/05 12:20:53;;;;;;;3.53;0.70;;;;;;;;;;5005768;28;20029;-66
2022/10/05 12:23:27;;;;;;;4.80;0.80;;;;;;;;;;5006093;28;20107;-66
2022/10/05 12:25:56;;;;;;;4.20;0.73;;;;;;;;;;4988529;28;20400;-67
2022/10/05 12:28:29;;;;;;;5.00;0.60;;;;;;;;;;5003773;28;20035;-66
2022/10/05 12:31:23;;;;;;;6.45;0.80;;;;;;;;;;5008138;28;20034;-66
2022/10/05 12:34:07;;;;;;;3.78;0.60;;;;;;;;;;5006028;28;20567;-67
2022/10/05 12:36:42;;;;;;;3.47;0.80;;;;;;;;;;5002410;28;20380;-67
2022/10/05 12:39:46;;;;;;;3.30;0.77;;;;;;;;;;5007658;28;20034;-67
2022/10/05 12:42:39;;;;;;;3.42;0.75;;;;;;;;;;4928895;28;20063;-67
2022/10/05 12:45:11;;;;;;;4.10;0.68;;;;;;;;;;4849133;29;20259;-67
2022/10/05 12:47:43;;;;;;;3.05;0.90;;;;;;;;;;4847504;29;21003;-67
2022/10/05 12:50:33;;;;;;;4.05;0.90;;;;;;;;;;4854258;29;20159;-67
2022/10/05 12:53:00;;;;;;;2.50;0.77;;;;;;;;;;4854240;29;20100;-67
2022/10/05 12:55:44;;;;;;;2.42;0.63;;;;;;;;;;4849386;29;20180;-67
2022/10/05 12:58:21;;;;;;;5.10;0.80;;;;;;;;;;4856437;29;20081;-67
2022/10/05 13:01:02;;;;;;;3.28;0.80;;;;;;;;;;4852150;29;20121;-67
2022/10/05 13:03:36;;;;;;;3.40;0.70;;;;;;;;;;4848066;29;20140;-67
2022/10/05 13:06:06;;;;;;;4.45;1.00;;;;;;;;;;4851191;29;20132;-67
2022/10/05 13:08:40;;;;;;;4.05;0.90;;;;;;;;;;4846448;29;20139;-67
2022/10/05 13:11:12;;;;;;;5.78;0.80;;;;;;;;;;4854610;29;20127;-67
2022/10/05 13:13:52;;;;;;;2.78;0.70;;;;;;;;;;4908068;28;20065;-66
2022/10/05 13:16:18;;;;;;;4.40;0.80;;;;;;;;;;4927445;28;20700;-66
2022/10/05 13:18:48;;;;;;;5.13;0.80;;;;;;;;;;4929828;28;20303;-66
2022/10/05 13:21:21;;;;;;;6.47;0.80;;;;;;;;;;4946013;28;20731;-66
2022/10/05 13:23:49;;;;;;;6.32;1.00;;;;;;;;;;5006743;28;20042;-67
2022/10/05 13:26:23;;;;;;;6.00;0.85;;;;;;;;;;5004912;28;20026;-66
2022/10/05 13:29:18;;;;;;;5.55;1.10;;;;;;;;;;5007061;28;20443;-67
2022/10/05 13:31:53;;;;;;;3.60;0.90;;;;;;;;;;4925886;28;20050;-67
2022/10/05 13:34:34;;;;;;;3.53;0.75;;;;;;;;;;4902621;28;20042;-67
2022/10/05 13:37:06;;;;;;;4.70;1.05;;;;;;;;;;4917107;28;20042;-67
2022/10/05 13:40:04;;;;;;;6.32;0.90;;;;;;;;;;4925024;28;20426;-66
2022/10/05 13:42:36;;;;;;;2.47;0.70;;;;;;;;;;4843178;29;20079;-67
2022/10/05 13:45:02;;;;;;;4.72;1.05;;;;;;;;;;4849001;29;20053;-66
2022/10/05 13:47:47;;;;;;;3.88;0.70;;;;;;;;;;4842658;29;20351;-66
2022/10/05 13:50:27;;;;;;;2.55;0.60;;;;;;;;;;4845261;29;20041;-66
2022/10/05 13:53:16;;;;;;;3.40;1.00;;;;;;;;;;4847830;29;20404;-66
2022/10/05 13:55:46;;;;;;;7.28;1.17;;;;;;;;;;4828604;29;20554;-69
2022/10/05 13:58:50;;;;;;;4.47;0.98;;;;;;;;;;4828639;29;20057;-67
2022/10/05 14:01:36;;;;;;;5.72;1.15;;;;;;;;;;4790135;29;20486;-67
2022/10/05 14:04:15;;;;;;;4.30;0.88;;;;;;;;;;4791717;29;20549;-67
2022/10/05 14:06:41;;;;;;;5.50;1.15;;;;;;;;;;4790439;29;20677;-69
2022/10/05 14:09:35;;;;;;;3.88;0.90;;;;;;;;;;4842436;29;20059;-67
2022/10/05 14:12:18;;;;;;;4.45;0.88;;;;;;;;;;4867460;29;20056;-67
2022/10/05 14:14:57;;;;;;;7.55;1.05;;;;;;;;;;4864511;29;20530;-67
2022/10/05 14:17:37;;;;;;;3.33;0.70;;;;;;;;;;4856469;29;20107;-67
2022/10/05 14:20:18;;;;;;;3.22;0.85;;;;;;;;;;4889371;29;20207;-68
2022/10/05 14:22:50;;;;;;;6.30;0.93;;;;;;;;;;4887346;29;20184;-67
2022/10/05 14:25:18;;;;;;;5.40;1.00;;;;;;;;;;4885872;29;20048;-67
2022/10/05 14:28:00;;;;;;;5.70;1.23;;;;;;;;;;4888404;29;20044;-67
2022/10/05 14:30:28;;;;;;;4.55;1.13;;;;;;;;;;4879734;29;20440;-66
2022/10/05 14:33:14;;;;;;;7.80;1.15;;;;;;;;;;4955450;28;20547;-67
2022/10/05 14:35:51;;;;;;;2.85;0.82;;;;;;;;;;4977615;28;20343;-67
2022/10/05 14:38:25;;;;;;;7.53;1.00;;;;;;;;;;4941992;28;20098;-67
2022/10/05 14:41:11;;;;;;;5.95;1.10;;;;;;;;;;4981624;28;20495;-67
2022/10/05 14:43:48;;;;;;;6.25;1.10;;;;;;;;;;5000986;28;20821;-67
2022/10/05 14:46:17;;;;;;;5.53;0.95;;;;;;;;;;5003077;28;20087;-67
2022/10/05 14:48:44;;;;;;;5.60;1.10;;;;;;;;;;5001146;28;20033;-66
2022/10/05 14:51:30;;;;;;;4.93;1.20;;;;;;;;;;4982568;28;20057;-67
2022/10/05 14:54:01;;;;;;;5.07;1.05;;;;;;;;;;4986796;28;20032;-67
2022/10/05 14:56:33;;;;;;;4.57;1.00;;;;;;;;;;5001892;28;20596;-66
2022/10/05 14:59:21;;;;;;;9.77;1.48;;;;;;;;;;4988376;28;20119;-67
2022/10/05 15:02:11;;;;;;;5.82;1.00;;;;;;;;;;5003720;28;20448;-67
2022/10/05 15:04:57;;;;;;;4.80;0.85;;;;;;;;;;4968504;28;20896;-67
2022/10/05 15:07:43;;;;;;;4.97;0.82;;;;;;;;;;5000082;28;20799;-67
2022/10/05 15:10:28;;;;;;;4.88;0.98;;;;;;;;;;5002386;28;20030;-66
2022/10/05 15:13:07;;;;;;;6.10;1.25;;;;;;;;;;5001137;28;20139;-65
2022/10/05 15:15:36;;;;;;;4.90;1.10;;;;;;;;;;5001437;28;20607;-66
2022/10/05 15:18:13;;;;;;;4.40;1.17;;;;;;;;;;5000505;28;20169;-66
2022/10/05 15:20:42;;;;;;;6.00;1.05;;;;;;;;;;5001886;28;20079;-66
2022/10/05 15:23:09;;;;;;;6.75;1.33;;;;;;;;;;4983468;28;20487;-66
2022/10/05 15:25:39;;;;;;;4.63;1.10;;;;;;;;;;4996561;28;20038;-66
2022/10/05 15:28:16;;;;;;;6.22;1.15;;;;;;;;;;5000694;28;20380;-65
2022/10/05 15:31:10;;;;;;;6.35;1.35;;;;;;;;;;5001682;28;20042;-65
2022/10/05 15:33:45;;;;;;;3.78;1.00;;;;;;;;;;4971807;28;20591;-65
2022/10/05 15:36:11;;;;;;;;;;;;;;;;;;5003116;28;20021;-66
2022/10/05 15:38:43;;;;;;;4.68;1.02;;;;;;;;;;5002644;28;19916;-66
2022/10/05 15:41:09;;;;;;;5.45;0.98;;;;;;;;;;5003978;28;20818;-67
2022/10/05 15:43:44;;;;;;;6.97;1.02;;;;;;;;;;4982721;28;20036;-66
2022/10/05 15:46:20;;;;;;;5.03;0.90;;;;;;;;;;5002873;28;20040;-66
2022/10/05 15:49:07;;;;;;;5.90;1.15;;;;;;;;;;4985040;28;20128;-66
2022/10/05 15:51:52;;;;;;;7.03;1.23;;;;;;;;;;5001548;28;20593;-67